Time;durP1;ratioP1;P1;durP2;ratioP2;P2;SDS_P1;SDS_P2;PMS_P1;PMS_P2;Temp;Humidity;BMP_temperature;BMP_pressure;BME280_temperature;BME280_humidity;BME280_pressure;Samples;Min_cycle;Max_cycle;Signal;HPM_P1;HPM_P2
2022/12/06 00:01:16;;;;;;;6.05;2.85;;;;;;;-3.65;56.52;102031.06;1769501;79;21031;-61
2022/12/06 00:03:44;;;;;;;10.43;3.83;;;;;;;-3.62;56.46;102033.66;1759638;80;21026;-61
2022/12/06 00:06:18;;;;;;;8.33;3.10;;;;;;;-3.64;56.33;102025.92;1760365;79;21101;-61
2022/12/06 00:08:45;;;;;;;9.48;3.70;;;;;;;-3.63;56.42;102021.62;1758954;80;21662;-61
2022/12/06 00:11:18;;;;;;;10.38;3.70;;;;;;;-3.63;56.42;102021.62;1771666;80;21919;-60
2022/12/06 00:13:45;;;;;;;12.00;3.37;;;;;;;-3.62;56.20;102024.22;1766971;79;21038;-59
2022/12/06 00:16:15;;;;;;;7.78;2.80;;;;;;;-3.61;56.12;102023.81;1757375;80;21599;-60
2022/12/06 00:18:43;;;;;;;6.47;2.15;;;;;;;-3.59;56.09;102024.23;1761302;80;21041;-60
2022/12/06 00:21:20;;;;;;;8.10;3.25;;;;;;;-3.58;56.00;102021.23;1763406;79;21074;-60
2022/12/06 00:23:49;;;;;;;8.98;3.47;;;;;;;-3.60;56.00;102013.94;1757394;79;21257;-60
2022/12/06 00:26:16;;;;;;;6.72;2.40;;;;;;;-3.61;55.87;102016.09;1771239;80;21370;-61
2022/12/06 00:28:43;;;;;;;11.33;3.98;;;;;;;-3.61;55.85;102019.95;1764362;80;21026;-60
2022/12/06 00:31:14;;;;;;;12.13;5.30;;;;;;;-3.59;55.90;102015.23;1758938;80;21559;-60
2022/12/06 00:33:40;;;;;;;8.58;3.55;;;;;;;-3.57;55.84;102016.09;1772573;80;21603;-61
2022/12/06 00:36:11;;;;;;;7.33;2.77;;;;;;;-3.53;55.72;102016.11;1772441;80;21504;-61
2022/12/06 00:38:38;;;;;;;6.62;2.67;;;;;;;-3.54;55.56;102010.11;1768711;79;21550;-60
2022/12/06 00:41:07;;;;;;;7.12;3.10;;;;;;;-3.56;55.49;102007.97;1701001;82;21595;-60
2022/12/06 00:43:34;;;;;;;5.65;2.22;;;;;;;-3.58;55.40;102002.81;1706330;83;21051;-61
2022/12/06 00:46:00;;;;;;;7.72;3.27;;;;;;;-3.57;55.39;102004.51;1674812;83;21012;-61
2022/12/06 00:48:27;;;;;;;7.70;3.47;;;;;;;-3.59;55.24;102000.23;1681918;85;21218;-60
2022/12/06 00:50:53;;;;;;;19.65;4.12;;;;;;;-3.58;55.20;102003.22;1677663;84;21048;-60
2022/12/06 00:53:20;;;;;;;7.08;2.92;;;;;;;-3.56;55.10;101997.23;1708679;83;21662;-60
2022/12/06 00:55:47;;;;;;;7.08;2.22;;;;;;;-3.58;54.87;101990.34;1706687;82;21551;-60
2022/12/06 00:58:14;;;;;;;7.30;2.75;;;;;;;-3.62;54.81;101989.48;1698588;82;21062;-60
2022/12/06 01:00:41;;;;;;;10.13;3.70;;;;;;;-3.63;54.87;101987.78;1744223;81;22129;-60
2022/12/06 01:03:08;;;;;;;9.00;2.90;;;;;;;-3.69;55.11;101985.16;1726595;82;21595;-60
2022/12/06 01:05:44;;;;;;;8.20;3.65;;;;;;;-3.74;55.53;101979.99;1724350;81;21882;-60
2022/12/06 01:08:10;;;;;;;10.30;3.55;;;;;;;-3.76;55.89;101983.42;1714098;82;21567;-59
2022/12/06 01:10:38;;;;;;;10.55;3.35;;;;;;;-3.85;56.23;101982.96;1736195;81;21058;-60
2022/12/06 01:13:04;;;;;;;8.03;2.58;;;;;;;-3.88;56.46;101980.36;1737209;81;21209;-60
2022/12/06 01:15:31;;;;;;;9.98;3.80;;;;;;;-3.95;56.78;101982.44;1742993;81;21033;-61
2022/12/06 01:17:58;;;;;;;7.60;2.85;;;;;;;-3.95;56.78;101982.44;1739520;82;21352;-60
2022/12/06 01:20:24;;;;;;;11.22;3.17;;;;;;;-3.98;56.91;101978.16;1740011;81;20991;-61
2022/12/06 01:22:50;;;;;;;10.93;4.92;;;;;;;-4.01;57.23;101972.99;1739396;80;21060;-61
2022/12/06 01:25:17;;;;;;;8.98;3.47;;;;;;;-4.01;57.23;101972.99;1734846;82;21958;-61
2022/12/06 01:27:44;;;;;;;9.93;4.25;;;;;;;-4.00;57.07;101971.27;1746295;82;21575;-61
2022/12/06 01:30:11;;;;;;;12.53;3.80;;;;;;;-4.00;57.07;101971.27;1744857;81;21548;-60
2022/12/06 01:32:37;;;;;;;7.67;3.10;;;;;;;-4.01;57.36;101972.14;1750595;81;21069;-59
2022/12/06 01:35:06;;;;;;;8.93;3.37;;;;;;;-4.03;57.34;101964.86;1747821;82;21069;-60
2022/12/06 01:37:32;;;;;;;9.20;2.85;;;;;;;-4.06;57.32;101968.25;1739041;81;22011;-60
2022/12/06 01:39:59;;;;;;;11.12;3.15;;;;;;;-4.09;57.43;101963.09;1747941;82;21021;-59
2022/12/06 01:42:25;;;;;;;12.95;3.05;;;;;;;-4.10;57.43;101962.67;1744695;82;21051;-60
2022/12/06 01:44:53;;;;;;;7.92;3.02;;;;;;;-4.11;57.60;101960.94;1746032;81;21013;-60
2022/12/06 01:47:32;;;;;;;8.85;2.85;;;;;;;-4.11;57.73;101962.23;1764110;79;21028;-60
2022/12/06 01:50:18;;;;;;;11.68;3.40;;;;;;;-4.11;57.73;101962.23;1762516;80;21236;-60
2022/12/06 01:53:01;;;;;;;8.03;3.15;;;;;;;-4.14;57.72;101955.34;1765084;80;21079;-60
2022/12/06 01:55:32;;;;;;;7.25;3.17;;;;;;;-4.16;57.78;101953.62;1760817;81;20998;-60
2022/12/06 01:58:03;;;;;;;9.55;4.05;;;;;;;-4.17;57.72;101945.06;1750304;80;21088;-60
2022/12/06 02:00:30;;;;;;;7.42;2.85;;;;;;;-4.17;57.68;101942.89;1749182;81;21450;-60
2022/12/06 02:02:56;;;;;;;7.97;2.75;;;;;;;-4.20;57.65;101942.88;1767602;81;21236;-59
2022/12/06 02:05:23;;;;;;;7.80;2.10;;;;;;;-4.24;57.82;101936.86;1764961;79;21043;-59
2022/12/06 02:07:49;;;;;;;6.87;2.85;;;;;;;-4.25;57.73;101931.70;1691290;81;21087;-59
2022/12/06 02:10:17;;;;;;;6.15;1.98;;;;;;;-4.26;57.69;101921.86;1701369;82;21065;-60
2022/12/06 02:14:44;;;;;;;9.93;3.10;;;;;;;-4.28;57.88;101917.58;1790280;77;22760;-60
2022/12/06 02:17:36;;;;;;;7.25;2.10;;;;;;;-4.01;56.91;101920.72;1773019;80;21047;-61
2022/12/06 02:20:14;;;;;;;6.85;2.65;;;;;;;-3.97;56.23;101915.61;1757733;80;21269;-60
2022/12/06 02:23:29;;;;;;;6.50;2.45;;;;;;;-3.97;56.23;101915.61;1758934;80;20982;-60
2022/12/06 02:26:19;;;;;;;10.28;4.03;;;;;;;-3.92;55.96;101916.48;1717181;81;21590;-61
2022/12/06 02:29:15;;;;;;;6.10;2.95;;;;;;;-3.89;55.61;101915.63;1697985;83;20967;-61
2022/12/06 02:31:52;;;;;;;8.18;2.55;;;;;;;-3.85;55.28;101913.92;1702380;82;21076;-62
2022/12/06 02:34:47;;;;;;;9.25;2.50;;;;;;;-3.85;54.94;101906.20;1708657;82;21505;-61
2022/12/06 02:37:32;;;;;;;5.10;2.17;;;;;;;-3.84;54.80;101914.36;1714977;82;21048;-62
2022/12/06 02:40:06;;;;;;;13.83;3.87;;;;;;;-3.82;54.72;101907.07;1699673;82;21032;-62
2022/12/06 02:42:43;;;;;;;10.70;3.58;;;;;;;-3.77;54.55;101912.23;1730736;81;21105;-62
2022/12/06 02:45:24;;;;;;;6.28;2.42;;;;;;;-3.72;54.33;101905.83;1707645;82;21547;-62
2022/12/06 02:47:50;;;;;;;6.25;3.52;;;;;;;-3.69;54.08;101909.71;1707475;82;21114;-63
2022/12/06 02:50:21;;;;;;;6.58;2.35;;;;;;;-3.68;53.93;101915.27;1704455;82;21039;-63
2022/12/06 02:52:50;;;;;;;10.13;4.17;;;;;;;-3.68;53.69;101909.72;1708312;82;21066;-60
2022/12/06 02:55:17;;;;;;;8.20;2.92;;;;;;;-3.77;53.61;101901.95;1709296;82;21500;-60
2022/12/06 02:57:46;;;;;;;9.23;3.00;;;;;;;-3.76;53.71;101899.83;1723085;83;21038;-60
2022/12/06 03:00:42;;;;;;;6.17;2.65;;;;;;;-3.75;53.64;101905.38;1700149;83;21203;-60
2022/12/06 03:03:47;;;;;;;8.05;2.70;;;;;;;-3.76;53.60;101904.97;1730254;81;21028;-61
2022/12/06 03:06:31;;;;;;;6.40;2.80;;;;;;;-3.73;53.54;101903.70;1700138;83;21063;-60
2022/12/06 03:09:22;;;;;;;9.10;3.08;;;;;;;-3.74;53.42;101898.96;1711909;83;21027;-60
2022/12/06 03:12:14;;;;;;;8.00;2.75;;;;;;;-3.74;53.34;101901.97;1705851;83;21091;-60
2022/12/06 03:14:46;;;;;;;8.75;2.40;;;;;;;-3.72;53.15;101901.98;1706841;82;21150;-60
2022/12/06 03:17:35;;;;;;;11.48;3.42;;;;;;;-3.74;53.07;101903.25;1764492;80;21051;-60
2022/12/06 03:20:07;;;;;;;9.45;2.27;;;;;;;-3.76;52.94;101901.11;1756992;80;21103;-61
2022/12/06 03:22:41;;;;;;;8.78;3.08;;;;;;;-3.81;52.98;101897.23;1755077;80;21113;-61
2022/12/06 03:25:08;;;;;;;8.73;2.98;;;;;;;-3.82;52.95;101908.80;1709101;82;21086;-60
2022/12/06 03:27:35;;;;;;;5.28;2.40;;;;;;;-3.86;52.95;101900.20;1737203;80;21815;-62
2022/12/06 03:30:05;;;;;;;6.37;2.40;;;;;;;-3.88;53.04;101907.06;1779202;80;21016;-61
2022/12/06 03:32:32;;;;;;;6.53;2.52;;;;;;;-3.89;52.98;101905.77;1727160;80;21059;-61
2022/12/06 03:35:03;;;;;;;6.60;3.02;;;;;;;-3.87;53.01;101914.34;1753738;80;21110;-61
2022/12/06 03:37:31;;;;;;;7.05;2.75;;;;;;;-3.87;52.93;101907.92;1751892;80;21066;-61
2022/12/06 03:40:15;;;;;;;7.67;2.85;;;;;;;-3.86;52.92;101909.21;1751164;80;21251;-61
2022/12/06 03:42:42;;;;;;;8.43;2.45;;;;;;;-3.87;52.92;101910.05;1758469;80;21051;-61
2022/12/06 03:45:10;;;;;;;7.67;2.87;;;;;;;-3.85;52.92;101911.34;1764524;80;20984;-61
2022/12/06 03:47:51;;;;;;;12.20;3.62;;;;;;;-3.85;52.88;101904.52;1751014;80;21048;-61
2022/12/06 03:50:23;;;;;;;4.62;1.52;;;;;;;-3.82;52.84;101902.36;1757250;80;21587;-61
2022/12/06 03:52:53;;;;;;;8.28;2.62;;;;;;;-3.82;52.75;101903.65;1743398;80;21830;-60
2022/12/06 03:55:19;;;;;;;7.12;2.10;;;;;;;-3.82;52.81;101898.50;1737544;80;21038;-60
2022/12/06 03:57:46;;;;;;;11.40;4.35;;;;;;;-3.84;52.78;101903.64;1762687;80;21055;-61
2022/12/06 04:00:15;;;;;;;9.75;3.80;;;;;;;-3.85;52.80;101902.34;1767640;80;21126;-60
2022/12/06 04:02:41;;;;;;;12.13;3.58;;;;;;;-3.83;52.88;101902.80;1754137;80;21057;-60
2022/12/06 04:05:08;;;;;;;10.35;3.30;;;;;;;-3.80;52.87;101903.22;1764977;80;21286;-60
2022/12/06 04:07:36;;;;;;;7.17;2.35;;;;;;;-3.79;52.80;101895.95;1753075;80;20995;-62
2022/12/06 04:10:04;;;;;;;8.40;3.00;;;;;;;-3.79;52.90;101892.94;1756175;80;21368;-60
2022/12/06 04:15:19;;;;;;;8.83;3.00;;;;;;;-3.75;53.00;101898.95;1758550;80;21523;-60
2022/12/06 04:23:02;;;;;;;6.87;2.12;;;;;;;-3.78;52.79;101893.83;1768753;80;21089;-61
2022/12/06 04:23:02;;;;;;;13.30;2.95;;;;;;;-3.88;53.01;101885.20;1757625;80;21059;-60
2022/12/06 04:25:33;;;;;;;6.53;1.87;;;;;;;-3.88;53.17;101885.61;1750624;80;21322;-60
2022/12/06 04:39:01;;;;;;;6.20;2.27;;;;;;;-3.85;53.18;101878.80;1755288;80;21003;-60
2022/12/06 04:44:13;;;;;;;5.60;2.20;;;;;;;-3.93;53.34;101880.03;1767994;80;21144;-61
2022/12/06 04:46:40;;;;;;;7.15;2.08;;;;;;;-3.91;53.43;101871.05;1759650;80;21384;-61
2022/12/06 04:49:06;;;;;;;6.65;2.30;;;;;;;-3.90;53.27;101873.18;1768367;80;21946;-61
2022/12/06 04:51:33;;;;;;;6.90;2.72;;;;;;;-3.94;53.28;101868.02;1750318;80;21590;-61
2022/12/06 04:53:59;;;;;;;10.05;3.37;;;;;;;-3.96;53.40;101863.30;1750604;80;21613;-61
2022/12/06 04:56:26;;;;;;;8.55;3.37;;;;;;;-3.93;53.43;101867.18;1750597;80;22217;-61
2022/12/06 04:58:52;;;;;;;10.38;3.15;;;;;;;-3.92;53.34;101869.31;1753426;80;21059;-61
2022/12/06 05:01:19;;;;;;;5.58;2.37;;;;;;;-3.92;53.33;101871.48;1756968;80;21008;-61
2022/12/06 05:03:46;;;;;;;8.83;1.85;;;;;;;-3.94;53.35;101865.45;1759709;80;21400;-61
2022/12/06 05:06:12;;;;;;;4.33;1.75;;;;;;;-3.97;53.30;101872.30;1750554;80;21016;-61
2022/12/06 05:08:39;;;;;;;9.13;3.40;;;;;;;-4.00;53.47;101861.99;1755358;80;21263;-61
2022/12/06 05:11:05;;;;;;;7.72;2.70;;;;;;;-4.01;53.62;101865.00;1755320;80;21047;-61
2022/12/06 05:13:32;;;;;;;7.33;2.17;;;;;;;-3.98;53.55;101864.17;1768121;80;21058;-63
2022/12/06 05:16:01;;;;;;;5.55;1.92;;;;;;;-4.04;53.59;101853.84;1747816;80;21037;-61
2022/12/06 05:18:28;;;;;;;9.85;2.37;;;;;;;-4.08;53.82;101859.81;1745289;80;21065;-61
2022/12/06 05:21:13;;;;;;;6.70;2.22;;;;;;;-4.14;54.19;101855.52;1745051;80;21149;-61
2022/12/06 05:23:40;;;;;;;7.87;2.90;;;;;;;-4.05;54.41;101854.69;1744269;80;21042;-61
2022/12/06 05:26:10;;;;;;;6.08;2.80;;;;;;;-3.89;54.48;101853.90;1744909;80;21607;-61
2022/12/06 05:28:36;;;;;;;6.97;2.87;;;;;;;-3.79;54.46;101858.22;1741443;80;21605;-61
2022/12/06 05:31:03;;;;;;;6.70;2.12;;;;;;;-3.72;54.32;101853.10;1747280;79;21523;-61
2022/12/06 05:33:30;;;;;;;7.17;2.92;;;;;;;-3.67;54.45;101847.54;1742988;80;21236;-61
2022/12/06 05:35:56;;;;;;;6.92;1.67;;;;;;;-3.49;54.83;101851.88;1742505;82;21071;-61
2022/12/06 05:38:23;;;;;;;10.32;2.27;;;;;;;-3.45;54.14;101849.72;1745904;80;21086;-61
2022/12/06 05:40:49;;;;;;;6.65;3.17;;;;;;;-3.45;54.14;101849.72;1748738;80;21033;-61
2022/12/06 05:43:16;;;;;;;6.28;2.25;;;;;;;-3.40;54.63;101844.15;1746857;80;20995;-61
2022/12/06 05:45:43;;;;;;;7.70;1.90;;;;;;;-3.36;54.64;101842.88;1763539;80;21886;-61
2022/12/06 05:48:09;;;;;;;6.80;2.35;;;;;;;-3.28;54.62;101845.88;1742365;81;21012;-61
2022/12/06 05:50:36;;;;;;;8.95;2.90;;;;;;;-3.25;54.74;101843.31;1742397;82;21039;-61
2022/12/06 05:53:02;;;;;;;6.17;2.22;;;;;;;-3.19;55.05;101835.60;1742443;82;21035;-61
2022/12/06 05:55:29;;;;;;;4.42;1.80;;;;;;;-3.10;55.10;101836.87;1766097;80;21039;-62
2022/12/06 05:57:55;;;;;;;7.83;2.15;;;;;;;-3.04;55.19;101833.45;1743060;80;21270;-61
2022/12/06 06:00:22;;;;;;;4.58;1.52;;;;;;;-3.03;55.25;101838.58;1745147;80;21026;-62
2022/12/06 06:02:49;;;;;;;5.12;1.72;;;;;;;-3.01;55.52;101837.30;1758954;80;21051;-61
2022/12/06 06:05:16;;;;;;;6.35;1.77;;;;;;;-2.99;55.76;101834.31;1751283;80;21055;-61
2022/12/06 06:07:43;;;;;;;5.78;2.35;;;;;;;-2.97;55.96;101835.60;1768728;80;21091;-61
2022/12/06 06:10:09;;;;;;;4.90;1.57;;;;;;;-2.96;55.99;101830.42;1759237;80;21839;-61
2022/12/06 06:12:36;;;;;;;4.95;1.87;;;;;;;-2.98;56.20;101825.70;1736788;80;21584;-61
2022/12/06 06:15:06;;;;;;;7.15;2.62;;;;;;;-2.94;56.35;101834.28;1753223;80;22754;-61
2022/12/06 06:17:33;;;;;;;7.20;2.17;;;;;;;-2.81;56.33;101839.85;1749449;81;21047;-61
2022/12/06 06:20:04;;;;;;;6.35;2.17;;;;;;;-2.81;56.33;101839.85;1746874;81;21110;-61
2022/12/06 06:23:17;;;;;;;7.17;2.30;;;;;;;-2.84;56.49;101825.28;1755673;79;22470;-59
2022/12/06 06:25:43;;;;;;;9.35;3.27;;;;;;;-2.65;55.94;101829.95;1738957;81;21009;-60
2022/12/06 06:28:10;;;;;;;7.92;2.50;;;;;;;-2.62;55.93;101828.67;1737507;80;21241;-60
2022/12/06 06:30:36;;;;;;;7.67;1.87;;;;;;;-2.70;56.24;101828.27;1737108;82;21548;-59
2022/12/06 06:33:03;;;;;;;7.12;1.98;;;;;;;-2.70;56.08;101822.67;1693451;83;22281;-62
2022/12/06 06:35:29;;;;;;;7.15;2.47;;;;;;;-2.63;56.05;101827.38;1717852;83;21106;-60
2022/12/06 06:37:56;;;;;;;7.33;1.75;;;;;;;-2.74;56.14;101814.53;1704014;83;20994;-60
2022/12/06 06:40:23;;;;;;;8.08;2.42;;;;;;;-2.78;56.38;101814.53;1710163;83;21245;-60
2022/12/06 06:42:49;;;;;;;6.70;2.35;;;;;;;-2.78;56.38;101814.53;1688508;84;20967;-60
2022/12/06 06:45:16;;;;;;;7.60;2.47;;;;;;;-2.67;56.36;101813.65;1684914;84;21361;-61
2022/12/06 06:47:42;;;;;;;6.33;2.50;;;;;;;-2.63;56.33;101813.20;1688643;84;21035;-61
2022/12/06 06:50:10;;;;;;;5.60;2.05;;;;;;;-2.85;56.83;101804.23;1679961;84;21062;-61
2022/12/06 06:52:37;;;;;;;4.92;1.60;;;;;;;-2.85;56.83;101804.23;1679791;84;21605;-60
2022/12/06 06:55:05;;;;;;;6.78;1.90;;;;;;;-2.77;56.98;101809.37;1682382;84;21062;-61
2022/12/06 06:57:31;;;;;;;5.67;1.32;;;;;;;-2.70;56.98;101808.94;1693794;84;21068;-61
2022/12/06 06:59:57;;;;;;;6.12;1.60;;;;;;;-2.65;56.91;101808.50;1684561;84;21110;-61
2022/12/06 07:02:24;;;;;;;6.28;1.90;;;;;;;-2.63;56.87;101814.50;1686843;84;21139;-61
2022/12/06 07:05:55;;;;;;;5.83;1.92;;;;;;;-2.71;57.12;101802.05;1792708;77;22772;-59
2022/12/06 07:08:22;;;;;;;5.08;2.25;;;;;;;-2.63;56.94;101811.92;1767308;80;21081;-60
2022/12/06 07:12:22;;;;;;;7.20;2.70;;;;;;;-2.64;57.24;101804.62;1798227;78;22160;-59
2022/12/06 07:14:49;;;;;;;4.65;1.47;;;;;;;-2.57;56.95;101808.05;1783635;80;21097;-59
2022/12/06 07:17:15;;;;;;;4.62;1.80;;;;;;;-2.57;56.95;101808.05;1776073;80;22154;-59
2022/12/06 07:19:42;;;;;;;12.85;3.58;;;;;;;-2.58;57.17;101811.48;1769658;80;21010;-58
2022/12/06 07:28:29;;;;;;;9.20;3.15;;;;;;;-2.26;57.98;101788.59;1802790;77;22593;-58
2022/12/06 07:30:56;;;;;;;7.17;2.20;;;;;;;-1.96;57.53;101793.19;1780387;78;21473;-59
2022/12/06 07:33:22;;;;;;;4.33;1.30;;;;;;;-1.90;57.52;101792.73;1789705;78;21812;-59
2022/12/06 07:35:52;;;;;;;5.85;1.80;;;;;;;-1.85;57.48;101785.38;1798240;78;21864;-59
2022/12/06 07:38:19;;;;;;;4.53;1.70;;;;;;;-1.83;57.54;101784.52;1783038;78;21042;-59
2022/12/06 07:40:46;;;;;;;5.95;2.42;;;;;;;-1.82;57.38;101791.38;1790794;78;21511;-60
2022/12/06 07:45:57;;;;;;;5.55;1.67;;;;;;;-1.82;57.52;101786.21;1793159;78;21965;-60
2022/12/06 07:48:24;;;;;;;6.62;2.35;;;;;;;-1.88;57.33;101787.56;1782042;78;22689;-60
2022/12/06 07:50:51;;;;;;;5.42;1.80;;;;;;;-1.86;57.30;101789.69;1797505;78;21038;-60
2022/12/06 07:53:18;;;;;;;3.65;1.22;;;;;;;-1.83;57.37;101783.22;1797273;78;21059;-59
2022/12/06 07:55:44;;;;;;;7.78;2.85;;;;;;;-1.84;57.17;101781.50;1794332;78;21025;-60
2022/12/06 07:58:11;;;;;;;5.72;2.25;;;;;;;-1.76;57.25;101782.31;1800590;78;21226;-60
2022/12/06 08:00:40;;;;;;;5.40;1.65;;;;;;;-1.76;57.25;101782.31;1793428;78;21029;-61
2022/12/06 08:03:07;;;;;;;10.23;1.90;;;;;;;-1.71;56.87;101779.70;1828740;77;21030;-61
2022/12/06 08:05:34;;;;;;;4.47;1.30;;;;;;;-1.69;56.58;101780.10;1806737;78;20975;-60
2022/12/06 08:08:00;;;;;;;4.12;1.32;;;;;;;-1.71;56.35;101777.97;1797791;78;21049;-60
2022/12/06 08:10:26;;;;;;;3.77;1.67;;;;;;;-1.71;56.44;101779.70;1804047;78;21199;-60
2022/12/06 08:12:53;;;;;;;7.10;2.00;;;;;;;-1.69;56.32;101772.36;1794473;78;21590;-61
2022/12/06 08:15:20;;;;;;;7.50;2.98;;;;;;;-1.71;56.04;101771.52;1753780;79;21027;-60
2022/12/06 08:17:47;;;;;;;6.33;2.37;;;;;;;-1.71;55.74;101771.52;1769099;79;21061;-61
2022/12/06 08:20:13;;;;;;;7.92;2.70;;;;;;;-1.72;55.54;101766.37;1780296;79;21078;-60
2022/12/06 08:22:40;;;;;;;6.37;2.27;;;;;;;-1.76;55.42;101771.98;1792138;78;21182;-61
2022/12/06 08:25:08;;;;;;;6.65;1.65;;;;;;;-1.72;55.12;101763.34;1780300;79;21046;-61
2022/12/06 08:27:35;;;;;;;6.90;1.82;;;;;;;-1.72;55.12;101763.34;1786056;77;21078;-60
2022/12/06 08:32:57;;;;;;;4.25;1.12;;;;;;;-1.67;55.29;101755.58;1718386;81;21006;-59
2022/12/06 08:35:24;;;;;;;6.12;1.95;;;;;;;-1.70;55.50;101751.72;1746666;81;21444;-59
2022/12/06 08:37:50;;;;;;;8.28;2.85;;;;;;;-1.75;55.37;101744.45;1713885;83;21020;-60
2022/12/06 08:40:17;;;;;;;4.12;1.52;;;;;;;-1.77;55.56;101738.45;1735868;81;21680;-60
2022/12/06 08:42:44;;;;;;;7.85;2.65;;;;;;;-1.76;55.48;101741.02;1735306;82;21020;-59
2022/12/06 08:45:11;;;;;;;5.80;1.87;;;;;;;-1.74;55.11;101729.41;1755784;79;20998;-58
2022/12/06 08:47:38;;;;;;;6.60;2.37;;;;;;;-1.74;55.11;101729.41;1765438;79;21113;-58
2022/12/06 08:50:07;;;;;;;5.62;2.35;;;;;;;-1.72;55.42;101734.95;1764949;81;21053;-59
2022/12/06 08:52:33;;;;;;;5.30;1.90;;;;;;;-1.69;55.24;101731.52;1735226;82;21330;-59
2022/12/06 08:55:00;;;;;;;7.15;1.47;;;;;;;-1.70;55.25;101724.63;1756389;80;21101;-59
2022/12/06 08:57:27;;;;;;;7.42;1.82;;;;;;;-1.65;55.32;101725.45;1746218;81;21078;-58
2022/12/06 08:59:54;;;;;;;6.05;1.92;;;;;;;-1.65;55.32;101725.45;1743254;81;21184;-59
2022/12/06 09:02:20;;;;;;;6.12;1.47;;;;;;;-1.60;55.41;101716.38;1758740;80;21101;-59
2022/12/06 09:04:50;;;;;;;6.28;1.82;;;;;;;-1.56;55.38;101717.64;1755453;81;21141;-60
2022/12/06 09:07:18;;;;;;;6.08;1.67;;;;;;;-1.52;54.87;101709.44;1752103;80;21087;-59
2022/12/06 09:09:45;;;;;;;6.83;1.50;;;;;;;-1.53;55.14;101702.13;1757598;80;21607;-60
2022/12/06 09:12:12;;;;;;;5.22;1.80;;;;;;;-1.52;54.92;101692.66;1748048;80;21141;-60
2022/12/06 09:14:38;;;;;;;9.20;2.20;;;;;;;-1.52;54.92;101692.66;1765207;80;21070;-61
2022/12/06 09:17:06;;;;;;;4.65;1.52;;;;;;;-1.53;55.08;101696.09;1769615;81;21545;-60
2022/12/06 09:19:33;;;;;;;5.25;2.35;;;;;;;-1.59;55.07;101691.00;1765177;79;21128;-57
2022/12/06 09:22:00;;;;;;;5.75;2.45;;;;;;;-1.59;55.07;101691.00;1767161;79;21037;-61
2022/12/06 09:24:27;;;;;;;10.03;2.80;;;;;;;-1.57;55.17;101691.84;1756141;79;21271;-61
2022/12/06 09:26:54;;;;;;;5.75;2.60;;;;;;;-1.49;54.99;101692.63;1757247;79;21050;-60
2022/12/06 09:34:17;;;;;;;5.10;1.77;;;;;;;-1.46;55.18;101677.12;1778597;78;22483;-60
2022/12/06 09:36:51;;;;;;;8.03;2.42;;;;;;;-1.29;54.54;101673.08;1740236;80;21096;-59
2022/12/06 09:39:23;;;;;;;7.78;2.40;;;;;;;-1.29;54.54;101673.08;1748857;81;21154;-60
2022/12/06 09:42:35;;;;;;;12.23;2.52;;;;;;;-1.29;54.46;101666.63;1745904;80;21067;-60
2022/12/06 09:45:41;;;;;;;3.72;1.27;;;;;;;-1.29;54.46;101666.63;1746987;81;21536;-60
2022/12/06 09:48:38;;;;;;;6.58;1.62;;;;;;;-1.27;54.28;101673.06;1714589;83;21610;-60
2022/12/06 09:51:16;;;;;;;7.70;1.67;;;;;;;-1.27;54.28;101673.06;1718238;81;20963;-60
2022/12/06 09:54:20;;;;;;;3.77;1.20;;;;;;;-1.25;54.55;101662.28;1724032;81;21239;-60
2022/12/06 10:00:11;;;;;;;5.65;1.47;;;;;;;-1.14;54.60;101655.28;1774039;78;22003;-60
2022/12/06 10:03:14;;;;;;;5.33;2.05;;;;;;;-1.14;54.60;101655.28;1749266;80;20915;-60
2022/12/06 10:05:59;;;;;;;5.05;1.80;;;;;;;-1.02;54.50;101648.67;1755088;80;21068;-60
2022/12/06 10:08:46;;;;;;;5.80;2.52;;;;;;;-0.96;54.60;101647.31;1707701;81;20931;-60
2022/12/06 10:11:27;;;;;;;6.55;2.00;;;;;;;-0.91;54.31;101647.23;1720286;81;21578;-60
2022/12/06 10:14:17;;;;;;;5.90;2.40;;;;;;;-0.90;53.80;101633.45;1718904;83;21084;-60
2022/12/06 10:16:55;;;;;;;6.00;2.33;;;;;;;-0.99;53.81;101632.30;1650302;85;21083;-60
2022/12/06 10:19:44;;;;;;;6.05;2.55;;;;;;;-1.04;53.75;101627.59;1752528;80;21152;-61
2022/12/06 10:22:47;;;;;;;7.05;2.87;;;;;;;-1.04;53.75;101627.59;1716578;81;21126;-60
2022/12/06 10:25:27;;;;;;;4.53;1.77;;;;;;;-1.07;53.89;101628.50;1721289;81;21501;-60
2022/12/06 10:28:17;;;;;;;4.55;1.72;;;;;;;-1.06;54.17;101640.55;1696767;84;21090;-60
2022/12/06 10:30:52;;;;;;;4.05;1.27;;;;;;;-1.09;53.66;101627.66;1706988;84;21067;-60
2022/12/06 10:33:41;;;;;;;7.47;2.20;;;;;;;-1.09;53.89;101621.62;1722913;82;21265;-60
2022/12/06 10:38:54;;;;;;;4.90;2.10;;;;;;;-1.12;53.98;101610.45;1661631;84;21101;-56
2022/12/06 10:41:44;;;;;;;8.33;2.80;;;;;;;-1.12;54.11;101616.91;1652744;84;21107;-54
2022/12/06 10:44:19;;;;;;;4.75;1.90;;;;;;;-1.07;53.99;101620.75;1660136;84;21088;-53
2022/12/06 10:47:11;;;;;;;6.55;1.80;;;;;;;-1.06;53.88;101614.72;1647428;86;21139;-54
2022/12/06 10:50:03;;;;;;;6.20;2.15;;;;;;;-1.05;54.10;101613.83;1671998;85;21115;-54
2022/12/06 10:52:44;;;;;;;5.80;2.37;;;;;;;-1.00;54.29;101608.16;1670821;85;21107;-54
2022/12/06 10:55:18;;;;;;;6.92;2.58;;;;;;;-0.94;54.16;101608.55;1647809;85;21030;-53
2022/12/06 10:58:33;;;;;;;5.87;2.30;;;;;;;-0.89;53.94;101600.71;1666721;85;21072;-53
2022/12/06 11:01:07;;;;;;;6.85;2.10;;;;;;;-0.88;53.94;101595.97;1664977;86;21156;-54
2022/12/06 11:03:57;;;;;;;5.47;2.10;;;;;;;-0.86;53.84;101598.09;1667538;85;21480;-52
2022/12/06 11:06:45;;;;;;;7.10;2.08;;;;;;;-0.82;53.70;101598.48;1633818;86;21076;-54
2022/12/06 11:09:35;;;;;;;6.40;2.67;;;;;;;-0.81;53.69;101592.42;1659738;86;21070;-51
2022/12/06 11:12:04;;;;;;;9.80;3.35;;;;;;;-0.77;53.89;101589.78;1662156;85;21592;-53
2022/12/06 11:14:45;;;;;;;8.78;3.17;;;;;;;-0.73;53.67;101585.42;1615601;86;21362;-56
2022/12/06 11:17:24;;;;;;;6.95;3.22;;;;;;;-0.71;53.77;101582.37;1664111;85;21013;-53
2022/12/06 11:20:02;;;;;;;5.97;2.83;;;;;;;-0.67;53.58;101581.47;1695059;84;21069;-54
2022/12/06 11:22:46;;;;;;;5.05;2.00;;;;;;;-0.67;53.48;101575.42;1670645;83;21022;-53
2022/12/06 11:25:51;;;;;;;6.50;2.10;;;;;;;-0.67;53.27;101568.55;1647502;86;21039;-54
2022/12/06 11:28:29;;;;;;;6.35;2.85;;;;;;;-0.71;53.24;101567.31;1690327;84;21221;-53
2022/12/06 11:30:56;;;;;;;5.17;1.95;;;;;;;-0.76;53.27;101559.61;1690986;84;21050;-53
2022/12/06 11:33:30;;;;;;;9.60;2.95;;;;;;;-0.83;53.34;101564.45;1692424;83;21121;-54
2022/12/06 11:36:04;;;;;;;7.75;3.10;;;;;;;-0.87;53.56;101558.48;1666976;86;21106;-54
2022/12/06 11:38:30;;;;;;;6.58;2.70;;;;;;;-0.84;53.62;101553.70;1655029;86;22169;-54
2022/12/06 11:40:57;;;;;;;4.60;1.57;;;;;;;-0.84;53.63;101549.81;1667995;84;23328;-54
2022/12/06 11:43:28;;;;;;;6.40;2.37;;;;;;;-0.85;53.46;101543.80;1670048;85;21056;-55
2022/12/06 11:45:55;;;;;;;7.12;2.65;;;;;;;-0.86;53.55;101539.95;1669057;85;21491;-54
2022/12/06 11:48:27;;;;;;;8.05;2.58;;;;;;;-0.86;53.81;101538.66;1672305;85;21083;-53
2022/12/06 11:50:54;;;;;;;6.65;2.45;;;;;;;-0.82;54.01;101533.88;1670729;85;21024;-54
2022/12/06 11:53:40;;;;;;;6.67;2.62;;;;;;;-0.81;53.99;101532.98;1668581;85;21563;-56
2022/12/06 11:56:23;;;;;;;8.18;2.35;;;;;;;-0.78;54.17;101529.06;1660678;86;21119;-53
2022/12/06 11:59:19;;;;;;;9.48;3.55;;;;;;;-0.72;54.17;101525.11;1676533;85;21632;-54
2022/12/06 12:01:49;;;;;;;8.30;3.23;;;;;;;-0.72;54.03;101519.06;1678595;85;21521;-54
2022/12/06 12:04:41;;;;;;;6.83;2.25;;;;;;;-0.73;54.26;101525.97;1681896;83;21083;-53
2022/12/06 12:07:13;;;;;;;7.37;3.10;;;;;;;-0.72;54.17;101516.48;1656373;86;23378;-53
2022/12/06 12:09:59;;;;;;;6.17;3.25;;;;;;;-0.76;54.15;101516.97;1668414;83;21090;-53
2022/12/06 12:15:26;;;;;;;5.65;2.62;;;;;;;-0.81;54.35;101511.89;1673069;85;21022;-54
2022/12/06 12:17:54;;;;;;;7.55;2.65;;;;;;;-0.84;54.56;101508.47;1679014;85;21073;-54
2022/12/06 12:20:27;;;;;;;6.62;2.27;;;;;;;-0.85;54.53;101508.08;1629481;88;22123;-53
2022/12/06 12:23:17;;;;;;;8.55;2.52;;;;;;;-0.91;54.59;101502.53;1647898;83;21075;-54
2022/12/06 12:25:43;;;;;;;9.08;2.37;;;;;;;-0.89;54.81;101494.77;1600200;88;21072;-54
2022/12/06 12:28:29;;;;;;;8.75;3.12;;;;;;;-0.91;54.53;101489.61;1624776;85;21086;-55
2022/12/06 12:30:57;;;;;;;6.05;2.35;;;;;;;-0.89;54.58;101490.47;1683136;85;21087;-55
2022/12/06 12:33:26;;;;;;;6.08;2.45;;;;;;;-0.90;54.65;101490.49;1660706;85;21147;-55
2022/12/06 12:36:04;;;;;;;4.42;1.45;;;;;;;-0.92;54.75;101489.63;1681730;84;21072;-55
2022/12/06 12:38:54;;;;;;;7.75;2.75;;;;;;;-0.94;54.89;101493.11;1626829;86;21116;-55